Tiempo atmosférico en la estación meteorológica de Tresviso, Cantabria (912 m.)



Fecha
DESCASC
Temp. máxima en grados centígrados (hora)
DESCASC
Temp. mínima en grados centígrados (hora)
DESCASC
Temp. media en grados centígrados
DESCASC
Racha de viento máxima en m/sg (hora)
DESCASC
Velocidad máxima media en intervalos de 10 minutos(hora)
DESCASC
Precipitaciones diarias en mm
DESCASC
Precipitaciones de 00:00 a 06:00 en mm
DESCASC
Precipitaciones de 06:00 a 12:00 en mm
DESCASC
Precipitaciones de 12:00 a 18:00 en mm
DESCASC
Precipitaciones de 18:00 a 24:00 en mm
DESCASC
22-11-2020 15.3 (13:30) 8.6 (23:59) 12 10 (12:10) 6.67 (12:10) 0 0 0 0 0
21-11-2020 14.6 (16:30) 6.3 (00:10) 10.5 6.11 (08:20) 3.89 (08:20) 0 0 0 0 0
20-11-2020 10.4 (14:50) 3.5 (08:40) 6.9 5 (16:10) 2.78 (23:10) 0.6 0.6 0 0 0
19-11-2020 13.8 (00:00) 5.1 (00:00) 9.5 7.78 (03:20) 5.83 (03:20) 3.2 0 1.8 0.8 0.6
18-11-2020 20.9 (14:10) 12.8 (00:00) 16.8 8.61 (22:20) 5 (22:20) 0 0 0 0 0
17-11-2020 21.3 (14:30) 9.8 (00:00) 15.5 3.89 (20:00) 2.5 (06:20) 0 0 0 0 0
16-11-2020 10.9 (14:50) 6.8 (00:00) 8.8 7.5 (04:10) 4.72 (04:30) 0 0 0 0 0
15-11-2020 16.7 (07:00) 8.1 (00:00) 12.4 17.5 (02:20) 8.89 (02:20) 2.2 0 0 1.2 1
14-11-2020 16.9 (14:00) 9.3 (00:00) 13.1 5.83 (00:50) 3.06 (02:20) 0 0 0 0 0
13-11-2020 16.5 (14:30) 9.6 (00:00) 13.1 5 (00:10) 3.33 (00:10) 0 0 0 0 0
12-11-2020 17.2 (15:10) 10.5 (00:00) 13.9 4.72 (23:30) 3.06 (23:20) 0 0 0 0 0
11-11-2020 15 (12:50) 8.7 (00:00) 11.8 6.39 (21:30) 5.28 (21:30) 0 0 0 0 0
10-11-2020 12.4 (13:00) 6.8 (00:00) 9.6 3.06 (11:30) 1.94 (11:50) 0 0 0 0 0
09-11-2020 15.5 (14:50) 8.5 (00:00) 12 11.11 (01:00) 4.72 (01:00) 4.4 0 0 4.2 0.2
08-11-2020 17.3 (15:20) 10.2 (00:00) 13.7 15.56 (23:30) 9.44 (23:30) 0 0 0 0 0
07-11-2020 15.8 (15:50) 10.9 (00:00) 13.3 22.5 (00:10) 11.39 (00:10) 1.4 1.4 0 0 0
06-11-2020 15.6 (14:40) 10.5 (00:00) 13.1 33.33 (23:40) 16.67 (23:50) 4.8 0 0.6 0 4.2
05-11-2020 12.9 (22:40) 3.2 (00:00) 8 16.94 (23:50) 7.5 (23:50) -- 0 0 -- 0
04-11-2020 6.2 (11:50) 2.6 (00:00) 4.4 12.78 (17:20) 6.67 (17:20) 3.4 0.2 0.8 0.6 1.8
03-11-2020 7.5 (10:10) 3.2 (00:00) 5.4 10.83 (04:40) 6.39 (05:30) 6.4 0 0.8 3.8 1.8
02-11-2020 19 (12:40) 7.2 (00:00) 13.1 6.11 (15:00) 2.78 (05:10) 7.6 0 0 0.4 7.2
01-11-2020 19.1 (15:00) 13.8 (00:00) 16.5 4.17 (21:00) 2.78 (21:00) 0 0 0 0 0
31-10-2020 20.9 (14:50) 11.8 (00:00) 16.3 5.28 (20:50) 3.61 (08:20) 0 0 0 0 0
30-10-2020 17.7 (14:40) 5.4 (00:00) 11.6 3.89 (23:50) 2.5 (22:40) 0 0 0 0 0
29-10-2020 15.6 (14:50) 7.1 (00:00) 11.4 3.89 (08:00) 2.22 (06:00) 0 0 0 0 0
28-10-2020 12 (15:30) 8.3 (00:00) 10.2 3.61 (16:50) 2.22 (23:59) 0.8 0.6 0.2 0 0
27-10-2020 14.6 (15:30) 6.7 (00:00) 10.7 8.06 (11:10) 5.56 (11:10) 0 0 0 0 0

Gráficas

Temp. máximas Temp. mínimas Temp. medias Precipitaciones Rachas de viento máximas Velocidades máximas media en intervalos de 10 minutos

Datos horarios

Fecha y hora oficial Temperatura (ºC) Velocidad del viento (km/h) Dirección del viento Racha (km/h) Dirección de racha Precipitación (mm) Presión (hPa) Tendencia (hPa) Humedad (%)
2020-11-25 23:00:00 8.6 6 Este 39 Sur 0 -- -- 67
2020-11-25 22:00:00 9.2 12 Sudoeste 22 Sudoeste 0 -- -- 62
2020-11-25 21:00:00 7.9 5 Nordeste 14 Norte 0 -- -- 73
2020-11-25 20:00:00 8 9 Nordeste 17 Este 0 -- -- 70
2020-11-25 19:00:00 7.9 3 Nordeste 15 Sudeste 0 -- -- 71
2020-11-25 18:00:00 7.9 7 Este 17 Este 0 -- -- 71
2020-11-25 17:00:00 8.3 7 Este 24 Sudeste 0 -- -- 70
2020-11-25 16:00:00 8.7 7 Este 21 Este 0 -- -- 71
2020-11-25 15:00:00 8.5 5 Norte 17 Nordeste 0 -- -- 74
2020-11-25 14:00:00 9.1 6 Nordeste 21 Nordeste 0 -- -- 73
2020-11-25 13:00:00 9.6 6 Este 18 Sudeste 0 -- -- 72
2020-11-25 12:00:00 8.9 7 Este 18 Sudeste 0 -- -- 70
2020-11-25 11:00:00 8.5 8 Nordeste 18 Este 0 -- -- 66
2020-11-25 10:00:00 7.9 9 Nordeste 19 Nordeste 0 -- -- 67
2020-11-25 09:00:00 7.9 8 Norte 33 Sudeste 0 -- -- 68
2020-11-25 08:00:00 7.1 8 Norte 14 Nordeste 0 -- -- 72
2020-11-25 07:00:00 7.3 6 Nordeste 14 Nordeste 0 -- -- 69
2020-11-25 06:00:00 7.9 7 Norte 12 Norte 0 -- -- 63
2020-11-25 05:00:00 8.3 5 Nordeste 9 Este 0 -- -- 61
2020-11-25 04:00:00 8.4 5 Noroeste 16 Noroeste 0 -- -- 60
2020-11-25 03:00:00 9 9 Sudoeste 22 Sudoeste 0 -- -- 58
2020-11-25 02:00:00 8.5 12 Oeste 16 Oeste 0 -- -- 58
2020-11-25 01:00:00 7.9 9 Norte 17 Oeste 0 -- -- 59
2020-11-25 00:00:00 8.2 12 Oeste 15 Oeste 0 -- -- 58
2020-11-24 23:00:00 7.9 3 Norte 10 Norte 0 -- -- 63
2020-11-24 22:00:00 7.4 6 Norte 14 Nordeste 0 -- -- 68
2020-11-24 21:00:00 8 9 Nordeste 15 Nordeste 0 -- -- 66
2020-11-24 20:00:00 9 4 Norte 11 Noroeste 0 -- -- 57
2020-11-24 19:00:00 8.5 4 Sudoeste 8 Sudoeste 0 -- -- 72
2020-11-24 18:00:00 8 2 Sudeste 6 Sur 0 -- -- 82
2020-11-24 17:00:00 9.5 0 Calma 7 Sudeste 0 -- -- 76
2020-11-24 16:00:00 11.1 3 Sudeste 9 Sudeste 0 -- -- 71
2020-11-24 15:00:00 10.9 3 Este 10 Sudeste 0 -- -- 66
2020-11-24 14:00:00 10.2 4 Nordeste 10 Este 0 -- -- 60
2020-11-24 13:00:00 9.9 6 Nordeste 11 Nordeste 0 -- -- 58
2020-11-24 12:00:00 10.6 7 Nordeste 13 Este 0 -- -- 50
2020-11-24 11:00:00 11.4 4 Este 6 Este 0 -- -- 42
2020-11-24 10:00:00 11.7 3 Nordeste 8 Noroeste 0 -- -- 33
2020-11-24 09:00:00 10.5 9 Norte 12 Norte 0 -- -- 31
2020-11-24 08:00:00 10.3 6 Norte 11 Noroeste 0 -- -- 30
2020-11-24 07:00:00 10.9 0 Calma 11 Noroeste 0 -- -- 29
2020-11-24 06:00:00 11.1 5 Oeste 11 Noroeste 0 -- -- 25
2020-11-24 05:00:00 11 7 Norte 10 Norte 0 -- -- 35
2020-11-24 04:00:00 11.1 6 Norte 12 Noroeste 0 -- -- 34
2020-11-24 03:00:00 11.5 5 Norte 11 Nordeste 0 -- -- 36
2020-11-24 02:00:00 11.8 8 Norte 12 Norte 0 -- -- 38
2020-11-24 01:00:00 11.2 9 Norte 13 Norte 0 -- -- 42
2020-11-24 00:00:00 10.6 9 Norte 15 Norte 0 -- -- 44
2020-11-23 23:00:00 10.8 4 Norte 11 Norte 0 -- -- 46
2020-11-23 22:00:00 10.8 6 Nordeste 11 Nordeste 0 -- -- 47
2020-11-23 21:00:00 10.8 8 Norte 12 Norte 0 -- -- 47
2020-11-23 20:00:00 10.9 3 Sudoeste 5 Sudoeste 0 -- -- 48
2020-11-23 19:00:00 10.9 0 Calma 4 Norte 0 -- -- 48
2020-11-23 18:00:00 11.3 0 Calma 6 Nordeste 0 -- -- 46
2020-11-23 17:00:00 11.7 6 Nordeste 12 Nordeste 0 -- -- 48
2020-11-23 16:00:00 12.4 7 Nordeste 12 Este 0 -- -- 43
2020-11-23 15:00:00 12.6 4 Nordeste 13 Nordeste 0 -- -- 35
2020-11-23 14:00:00 12.9 8 Este 12 Este 0 -- -- 36
2020-11-23 13:00:00 13.9 2 Nordeste 13 Nordeste 0 -- -- 41
2020-11-23 12:00:00 13.3 4 Este 9 Sudeste 0 -- -- 46
2020-11-23 11:00:00 11.4 6 Nordeste 9 Nordeste 0 -- -- 48
2020-11-23 10:00:00 11.6 0 Calma 6 Sudoeste 0 -- -- 47
2020-11-23 09:00:00 9.5 0 Calma 6 Noroeste 0 -- -- 45
2020-11-23 08:00:00 8.7 4 Sudoeste 6 Noroeste 0 -- -- 45
2020-11-23 07:00:00 8.7 0 Calma 5 Sudoeste 0 -- -- 50
2020-11-23 06:00:00 8.7 2 Sudoeste 9 Norte 0 -- -- 58
2020-11-23 05:00:00 8.3 2 Sudoeste 6 Sudoeste 0 -- -- 51
2020-11-23 04:00:00 8.7 0 Calma 5 Sudoeste 0 -- -- 50
2020-11-23 03:00:00 8.4 0 Calma 4 Sudoeste 0 -- -- 58
2020-11-23 02:00:00 8.4 3 Sudoeste 6 Norte 0 -- -- 58
2020-11-23 01:00:00 8.7 4 Nordeste 9 Norte 0 -- -- 57
2020-11-23 00:00:00 8.6 3 Nordeste 5 Norte 0 -- -- 61
2020-11-22 23:00:00 9.5 3 Oeste 20 Oeste 0 -- -- 54
2020-11-22 22:00:00 9.6 12 Oeste 17 Oeste 0 -- -- 52
2020-11-22 21:00:00 9.5 2 Nordeste 23 Oeste 0 -- -- 62
2020-11-22 20:00:00 10.1 6 Sur 26 Sudoeste 0 -- -- 64
2020-11-22 19:00:00 10.4 18 Sudoeste 26 Sudoeste 0 -- -- 63
2020-11-22 18:00:00 9.5 4 Nordeste 11 Sur 0 -- -- 72
2020-11-22 17:00:00 12 4 Sur 12 Sur 0 -- -- 60
2020-11-22 16:00:00 14.7 5 Sudoeste 27 Sudoeste 0 -- -- 52
2020-11-22 15:00:00 15.3 18 Sudoeste 29 Sudoeste 0 -- -- 41
2020-11-22 14:00:00 14.8 4 Este 31 Oeste 0 -- -- 51
2020-11-22 13:00:00 15.1 14 Oeste 36 Sudoeste 0 -- -- 42
2020-11-22 12:00:00 14 24 Sudoeste 35 Sudoeste 0 -- -- 39
2020-11-22 11:00:00 12.9 5 Sur 15 Sudoeste 0 -- -- 48
2020-11-22 10:00:00 12.2 5 Sur 15 Oeste 0 -- -- 48
2020-11-22 09:00:00 11.1 6 Sudoeste 20 Oeste 0 -- -- 46
2020-11-22 08:00:00 11.4 5 Sudoeste 23 Oeste 0 -- -- 42
2020-11-22 07:00:00 11.9 12 Sudoeste 20 Oeste 0 -- -- 37
2020-11-22 06:00:00 11.3 2 Este 4 Sudeste 0 -- -- 39
2020-11-22 05:00:00 11.9 0 Calma 10 Sudoeste 0 -- -- 37
2020-11-22 04:00:00 12.4 9 Sudoeste 10 Sudoeste 0 -- -- 37
2020-11-22 03:00:00 12.5 4 Norte 6 Nordeste 0 -- -- 37
2020-11-22 02:00:00 12.9 3 Norte 5 Nordeste 0 -- -- 38
2020-11-22 01:00:00 12.9 2 Nordeste 5 Norte 0 -- -- 38
2020-11-22 00:00:00 11.9 0 Calma 5 Norte 0 -- -- 38
2020-11-21 23:00:00 12 3 Norte 7 Norte 0 -- -- 37
2020-11-21 22:00:00 11.3 4 Norte 6 Norte 0 -- -- 39
2020-11-21 21:00:00 11.5 0 Calma 6 Sudoeste 0 -- -- 36
2020-11-21 20:00:00 11.6 2 Sudoeste 6 Norte 0 -- -- 35
2020-11-21 19:00:00 11.4 6 Nordeste 13 Nordeste 0 -- -- 34
2020-11-21 18:00:00 11.2 7 Norte 10 Norte 0 -- -- 37
2020-11-21 17:00:00 14 3 Nordeste 8 Este 0 -- -- 32
2020-11-21 16:00:00 14.3 5 Este 13 Nordeste 0 -- -- 38
2020-11-21 15:00:00 13.4 8 Nordeste 13 Este 0 -- -- 36
2020-11-21 14:00:00 13.2 8 Nordeste 19 Nordeste 0 -- -- 36
2020-11-21 13:00:00 12.2 12 Nordeste 19 Nordeste 0 -- -- 40
2020-11-21 12:00:00 13.5 9 Nordeste 13 Este 0 -- -- 39
2020-11-21 11:00:00 12 4 Noroeste 10 Noroeste 0 -- -- 45
2020-11-21 10:00:00 10.6 3 Sudeste 8 Norte 0 -- -- 52
2020-11-21 09:00:00 9.2 6 Norte 22 Nordeste 0 -- -- 46
2020-11-21 08:00:00 7.4 9 Nordeste 14 Nordeste 0 -- -- 54
2020-11-21 07:00:00 6.9 11 Nordeste 15 Nordeste 0 -- -- 56
2020-11-21 06:00:00 9.1 5 Nordeste 7 Norte 0 -- -- 48
2020-11-21 05:00:00 7.1 6 Norte 10 Norte 0 -- -- 53
2020-11-21 04:00:00 9.1 6 Norte 10 Norte 0 -- -- 42
2020-11-21 03:00:00 8.5 8 Nordeste 12 Norte 0 -- -- 45
2020-11-21 02:00:00 7.3 2 Oeste 8 Norte 0 -- -- 54
2020-11-21 01:00:00 7.6 7 Norte 10 Nordeste 0 -- -- 48
2020-11-21 00:00:00 6.4 3 Nordeste 15 Nordeste 0 -- -- 73
2020-11-20 23:00:00 6 6 Norte 12 Norte 0 -- -- 76
2020-11-20 22:00:00 5.3 2 Sur 9 Norte 0 -- -- 90
2020-11-20 21:00:00 5 4 Norte 7 Oeste 0 -- -- 91
2020-11-20 20:00:00 5.2 2 Sudeste 7 Sur 0 -- -- 91
2020-11-20 19:00:00 6.3 0 Calma 9 Este 0 -- -- 80
2020-11-20 18:00:00 7 5 Nordeste 12 Este 0 -- -- 75
2020-11-20 17:00:00 7.9 5 Sudoeste 18 Nordeste 0 -- -- 82
2020-11-20 16:00:00 9.8 5 Sudeste 12 Sudeste 0 -- -- 73
2020-11-20 15:00:00 10 3 Este 10 Sur 0 -- -- 68
2020-11-20 14:00:00 9.9 6 Sur 14 Sudoeste 0 -- -- 72
2020-11-20 13:00:00 7.5 7 Este 15 Nordeste 0 -- -- 80
2020-11-20 12:00:00 7.2 4 Nordeste 11 Nordeste 0 -- -- 77
2020-11-20 11:00:00 6.6 3 Sur 14 Nordeste 0 -- -- 82
2020-11-20 10:00:00 6 5 Este 9 Nordeste 0 -- -- 86
2020-11-20 09:00:00 3.7 6 Norte 8 Norte 0 -- -- 98
2020-11-20 08:00:00 3.8 4 Nordeste 10 Noroeste 0 -- -- 92
2020-11-20 07:00:00 4 4 Noroeste 6 Noroeste 0 -- -- 97
2020-11-20 06:00:00 4.2 0 Calma 7 Norte 0 -- -- 94
2020-11-20 05:00:00 4.2 3 Sudoeste 10 Sudoeste 0 -- -- 96
2020-11-20 04:00:00 4.5 3 Norte 7 Norte 0 -- -- 100
2020-11-20 03:00:00 4.7 0 Calma 10 Nordeste 0 -- -- 100
2020-11-20 02:00:00 5 4 Nordeste 10 Nordeste 0.2 -- -- 100
2020-11-20 01:00:00 5.1 2 Este 9 Nordeste 0.4 -- -- 100
2020-11-20 00:00:00 5.3 4 Sur 8 Nordeste 0 -- -- 100
2020-11-19 23:00:00 5.2 6 Nordeste 9 Este 0.2 -- -- 100
2020-11-19 22:00:00 5.8 2 Nordeste 7 Norte 0.2 -- -- 100
2020-11-19 21:00:00 5.8 4 Sur 7 Sur 0 -- -- 100
2020-11-19 20:00:00 5.7 5 Sudoeste 22 Nordeste 0.2 -- -- 100
2020-11-19 19:00:00 5.6 10 Norte 21 Nordeste 0 -- -- 100
2020-11-19 18:00:00 6.7 2 Este 7 Nordeste 0.2 -- -- 99
2020-11-19 17:00:00 6.8 5 Nordeste 17 Nordeste 0.2 -- -- 99
2020-11-19 16:00:00 7.4 8 Nordeste 24 Nordeste 0.2 -- -- 98
2020-11-19 15:00:00 8.4 5 Este 20 Nordeste 0 -- -- 97
2020-11-19 14:00:00 9.6 3 Este 9 Sudeste 0 -- -- 95
2020-11-19 13:00:00 9.4 4 Sudeste 8 Sur 0.2 -- -- 98
2020-11-19 12:00:00 8.7 2 Sudeste 8 Sudeste 0.4 -- -- 98
2020-11-19 11:00:00 8.6 4 Sudeste 7 Sur 0.2 -- -- 99
2020-11-19 10:00:00 8.4 3 Este 8 Sudeste 0.4 -- -- 99
2020-11-19 09:00:00 8.2 7 Nordeste 17 Nordeste 0.4 -- -- 99
2020-11-19 08:00:00 9 4 Sudoeste 7 Sudoeste 0.4 -- -- 98
2020-11-19 07:00:00 9.8 4 Nordeste 9 Sudoeste 0 -- -- 98
2020-11-19 06:00:00 9.7 3 Sur 14 Noroeste 0 -- -- 97
2020-11-19 05:00:00 9.8 7 Sudoeste 18 Oeste 0 -- -- 95
2020-11-19 04:00:00 11.2 11 Oeste 28 Oeste 0 -- -- 87
2020-11-19 03:00:00 10.8 11 Oeste 20 Oeste 0 -- -- 85
2020-11-19 02:00:00 11.7 3 Sur 11 Norte 0 -- -- 71
2020-11-19 01:00:00 12.2 6 Nordeste 17 Oeste 0 -- -- 71
2020-11-19 00:00:00 13.8 14 Oeste 22 Oeste 0 -- -- 63
2020-11-18 23:00:00 14 13 Oeste 31 Norte 0 -- -- 58
2020-11-18 22:00:00 14.3 13 Norte 21 Noroeste 0 -- -- 56
2020-11-18 21:00:00 13.3 3 Oeste 7 Noroeste 0 -- -- 62
2020-11-18 20:00:00 13.2 2 Norte 8 Sudoeste 0 -- -- 61
2020-11-18 19:00:00 12.8 6 Oeste 9 Oeste 0 -- -- 64
2020-11-18 18:00:00 13.3 4 Sudoeste 8 Sudoeste 0 -- -- 65
2020-11-18 17:00:00 16 6 Sudoeste 12 Sudeste 0 -- -- 56
2020-11-18 16:00:00 18.5 6 Sur 9 Sur 0 -- -- 49
2020-11-18 15:00:00 20.2 4 Sudeste 9 Sur 0 -- -- 48
2020-11-18 14:00:00 20.8 4 Sudeste 9 Sudeste 0 -- -- 44
2020-11-18 13:00:00 19.9 3 Este 10 Sur 0 -- -- 43
2020-11-18 12:00:00 19.1 3 Sudeste 7 Sudeste 0 -- -- 47
2020-11-18 11:00:00 17.7 3 Nordeste 8 Sudeste 0 -- -- 48
2020-11-18 10:00:00 17.1 3 Este 13 Nordeste 0 -- -- 46
2020-11-18 09:00:00 14.4 9 Norte 16 Oeste 0 -- -- 58
2020-11-18 08:00:00 14.8 9 Oeste 15 Oeste 0 -- -- 50
2020-11-18 07:00:00 13.9 3 Norte 14 Norte 0 -- -- 52
2020-11-18 06:00:00 14.1 3 Este 9 Noroeste 0 -- -- 45
2020-11-18 05:00:00 14 5 Norte 12 Norte 0 -- -- 47
2020-11-18 04:00:00 14.1 6 Norte 10 Noroeste 0 -- -- 46
2020-11-18 03:00:00 14.1 5 Norte 12 Norte 0 -- -- 45
2020-11-18 02:00:00 14.3 4 Norte 11 Norte 0 -- -- 43
2020-11-18 01:00:00 14.8 5 Norte 17 Oeste 0 -- -- 42
2020-11-18 00:00:00 15.4 5 Norte 12 Norte 0 -- -- 40
2020-11-17 23:00:00 15.8 5 Norte 13 Norte 0 -- -- 38
2020-11-17 22:00:00 15.7 6 Norte 10 Norte 0 -- -- 38
2020-11-17 21:00:00 15.7 8 Norte 13 Noroeste 0 -- -- 40
2020-11-17 20:00:00 15.6 9 Norte 14 Norte 0 -- -- 42
2020-11-17 19:00:00 16.1 7 Norte 11 Noroeste 0 -- -- 42
2020-11-17 18:00:00 16 5 Norte 9 Norte 0 -- -- 45
2020-11-17 17:00:00 20.2 0 Calma 8 Sudoeste 0 -- -- 36
2020-11-17 16:00:00 20.6 6 Sur 9 Sudoeste 0 -- -- 39
2020-11-17 15:00:00 20.4 0 Calma 8 Sudeste 0 -- -- 36
2020-11-17 14:00:00 20.2 4 Sudeste 8 Sudeste 0 -- -- 36
2020-11-17 13:00:00 19.7 3 Sudeste 9 Sur 0 -- -- 38
2020-11-17 12:00:00 18.4 3 Nordeste 8 Este 0 -- -- 41
2020-11-17 11:00:00 16.9 4 Nordeste 8 Nordeste 0 -- -- 40
2020-11-17 10:00:00 16.1 3 Oeste 7 Norte 0 -- -- 39
2020-11-17 09:00:00 14 3 Norte 9 Noroeste 0 -- -- 43
2020-11-17 08:00:00 13.2 2 Oeste 10 Noroeste 0 -- -- 45
2020-11-17 07:00:00 13.2 0 Calma 13 Noroeste 0 -- -- 45
2020-11-17 06:00:00 12.5 5 Norte 10 Noroeste 0 -- -- 47
2020-11-17 05:00:00 11.5 5 Norte 9 Norte 0 -- -- 50
2020-11-17 04:00:00 10.9 6 Norte 12 Norte 0 -- -- 52
2020-11-17 03:00:00 10.5 8 Norte 12 Norte 0 -- -- 54
2020-11-17 02:00:00 11 3 Oeste 7 Noroeste 0 -- -- 47
2020-11-17 01:00:00 10.1 4 Sudoeste 10 Norte 0 -- -- 51
2020-11-17 00:00:00 9.8 8 Norte 10 Norte 0 -- -- 62
2020-11-16 23:00:00 9.8 3 Sudoeste 6 Norte 0 -- -- 66
2020-11-16 22:00:00 9.7 4 Norte 6 Norte 0 -- -- 67
2020-11-16 21:00:00 9 2 Noroeste 8 Norte 0 -- -- 77
2020-11-16 20:00:00 8.3 0 Calma 6 Norte 0 -- -- 86
2020-11-16 19:00:00 7.7 2 Noroeste 5 Sudoeste 0 -- -- 89
2020-11-16 18:00:00 8.1 2 Norte 3 Norte 0 -- -- 87
2020-11-16 17:00:00 9.6 0 Calma 9 Sudeste 0 -- -- 81
2020-11-16 16:00:00 10.4 2 Este 11 Norte 0 -- -- 78
2020-11-16 15:00:00 10.7 3 Nordeste 8 Sudeste 0 -- -- 79
2020-11-16 14:00:00 10.4 4 Nordeste 9 Sudeste 0 -- -- 81
2020-11-16 13:00:00 10.1 3 Este 8 Sur 0 -- -- 80
2020-11-16 12:00:00 8.1 6 Nordeste 12 Este 0 -- -- 88
2020-11-16 11:00:00 8.3 3 Sur 12 Sudoeste 0 -- -- 81
2020-11-16 10:00:00 7.2 6 Sudoeste 9 Sur 0 -- -- 87
2020-11-16 09:00:00 6.9 0 Calma 12 Noroeste 0 -- -- 89
2020-11-16 08:00:00 7.1 8 Oeste 15 Noroeste 0 -- -- 83
2020-11-16 07:00:00 7.1 9 Noroeste 18 Noroeste 0 -- -- 86
2020-11-16 06:00:00 6.9 0 Calma 13 Oeste 0 -- -- 96
2020-11-16 05:00:00 7.1 12 Oeste 27 Noroeste 0 -- -- 91
2020-11-16 04:00:00 7.2 14 Noroeste 26 Noroeste 0 -- -- 93
2020-11-16 03:00:00 7.2 2 Norte 7 Este 0 -- -- 99
2020-11-16 02:00:00 7.4 3 Noroeste 18 Sudoeste 0 -- -- 97
2020-11-16 01:00:00 7.9 11 Sudoeste 21 Oeste 0 -- -- 96
2020-11-16 00:00:00 8.2 10 Noroeste 27 Oeste 0 -- -- 93
2020-11-15 23:00:00 8.2 15 Oeste 27 Oeste 0 -- -- 94
2020-11-15 22:00:00 8.4 16 Oeste 39 Oeste 0 -- -- 92
2020-11-15 21:00:00 8.3 21 Oeste 33 Oeste 0 -- -- 93
2020-11-15 20:00:00 8.7 16 Oeste 25 Oeste 0.2 -- -- 94
2020-11-15 19:00:00 9.3 9 Sudoeste 16 Sudoeste 0.8 -- -- 98
2020-11-15 18:00:00 10 10 Sur 25 Oeste 0.6 -- -- 98
2020-11-15 17:00:00 10.5 3 Sur 10 Sudoeste 0.4 -- -- 98
2020-11-15 16:00:00 11.1 0 Calma 12 Nordeste 0.2 -- -- 98
2020-11-15 15:00:00 11.4 6 Nordeste 13 Este 0 -- -- 96
2020-11-15 14:00:00 12.3 4 Este 10 Nordeste 0 -- -- 93
2020-11-15 13:00:00 13.4 4 Sudeste 15 Sudoeste 0 -- -- 80
2020-11-15 12:00:00 14.4 7 Sudoeste 21 Este 0 -- -- 69
2020-11-15 11:00:00 15.7 8 Este 16 Nordeste 0 -- -- 63
2020-11-15 10:00:00 14.8 5 Norte 14 Norte 0 -- -- 64
2020-11-15 09:00:00 14.3 11 Norte 19 Nordeste 0 -- -- 66
2020-11-15 08:00:00 14.6 6 Nordeste 33 Sudoeste 0 -- -- 63
2020-11-15 07:00:00 16.7 21 Sudoeste 56 Sur 0 -- -- 50
2020-11-15 06:00:00 13.5 14 Norte 23 Norte 0 -- -- 65
2020-11-15 05:00:00 13.2 11 Nordeste 27 Nordeste 0 -- -- 70
2020-11-15 04:00:00 13.8 13 Norte 30 Nordeste 0 -- -- 66
2020-11-15 03:00:00 13.9 13 Norte 63 Oeste 0 -- -- 66
2020-11-15 02:00:00 12.6 11 Nordeste 21 Nordeste 0 -- -- 66
2020-11-15 01:00:00 12.2 9 Norte 16 Nordeste 0 -- -- 67
2020-11-15 00:00:00 12.3 7 Norte 15 Norte 0 -- -- 65
2020-11-14 23:00:00 11.9 9 Norte 15 Nordeste 0 -- -- 64
2020-11-14 22:00:00 12.2 5 Nordeste 12 Nordeste 0 -- -- 63
2020-11-14 21:00:00 12.6 6 Nordeste 13 Norte 0 -- -- 62
2020-11-14 20:00:00 12 10 Norte 13 Norte 0 -- -- 65
2020-11-14 19:00:00 12.5 7 Norte 10 Noroeste 0 -- -- 64
2020-11-14 18:00:00 12.5 7 Norte 12 Noroeste 0 -- -- 65
2020-11-14 17:00:00 14.7 4 Norte 12 Sudeste 0 -- -- 59
2020-11-14 16:00:00 16.2 5 Este 17 Nordeste 0 -- -- 54
2020-11-14 15:00:00 15.8 4 Este 9 Nordeste 0 -- -- 52
2020-11-14 14:00:00 16.9 5 Este 12 Este 0 -- -- 51
2020-11-14 13:00:00 16.1 4 Nordeste 11 Este 0 -- -- 49
2020-11-14 12:00:00 15.3 5 Este 11 Este 0 -- -- 49
2020-11-14 11:00:00 14.4 5 Nordeste 17 Este 0 -- -- 50
2020-11-14 10:00:00 12.7 5 Nordeste 12 Este 0 -- -- 53
2020-11-14 09:00:00 11.1 0 Calma 11 Norte 0 -- -- 55
2020-11-14 08:00:00 9.4 8 Norte 15 Norte 0 -- -- 61
2020-11-14 07:00:00 9.9 9 Norte 14 Norte 0 -- -- 56
2020-11-14 06:00:00 9.9 6 Norte 13 Norte 0 -- -- 55
2020-11-14 05:00:00 10.9 8 Sudoeste 17 Oeste 0 -- -- 52
2020-11-14 04:00:00 10.6 7 Norte 13 Norte 0 -- -- 45
2020-11-14 03:00:00 10.5 7 Norte 14 Norte 0 -- -- 47
2020-11-14 02:00:00 10.5 7 Norte 14 Nordeste 0 -- -- 45
2020-11-14 01:00:00 10.9 8 Norte 21 Nordeste 0 -- -- 43
2020-11-14 00:00:00 10.7 9 Nordeste 17 Nordeste 0 -- -- 47
2020-11-13 23:00:00 10.3 8 Nordeste 12 Nordeste 0 -- -- 51
2020-11-13 22:00:00 10.3 6 Norte 11 Nordeste 0 -- -- 56
2020-11-13 21:00:00 11 6 Nordeste 15 Nordeste 0 -- -- 56
2020-11-13 20:00:00 11.3 4 Norte 9 Noroeste 0 -- -- 61
2020-11-13 19:00:00 11.3 3 Noroeste 6 Norte 0 -- -- 70
2020-11-13 18:00:00 12.3 2 Norte 6 Sudoeste 0 -- -- 62
2020-11-13 17:00:00 14.5 6 Sudoeste 11 Sur 0 -- -- 56
2020-11-13 16:00:00 15.6 6 Sur 12 Sudeste 0 -- -- 54
2020-11-13 15:00:00 16.3 5 Sudeste 13 Sur 0 -- -- 50
2020-11-13 14:00:00 16.4 6 Sudeste 12 Sur 0 -- -- 44
2020-11-13 13:00:00 14.8 4 Este 8 Este 0 -- -- 40
2020-11-13 12:00:00 15 3 Sudeste 9 Sur 0 -- -- 39
2020-11-13 11:00:00 14.2 5 Sur 10 Sur 0 -- -- 52
2020-11-13 10:00:00 13.4 3 Este 9 Nordeste 0 -- -- 46
2020-11-13 09:00:00 10.3 4 Nordeste 9 Nordeste 0 -- -- 66
2020-11-13 08:00:00 9.8 7 Norte 13 Norte 0 -- -- 72
2020-11-13 07:00:00 10.5 9 Nordeste 12 Norte 0 -- -- 64
2020-11-13 06:00:00 10.8 6 Norte 10 Norte 0 -- -- 47
2020-11-13 05:00:00 11.6 4 Norte 6 Norte 0 -- -- 42
2020-11-13 04:00:00 12.2 3 Nordeste 11 Nordeste 0 -- -- 36
2020-11-13 03:00:00 13.2 4 Norte 12 Noroeste 0 -- -- 43
2020-11-13 02:00:00 12.7 6 Norte 12 Norte 0 -- -- 40
2020-11-13 01:00:00 12.6 5 Norte 18 Nordeste 0 -- -- 43
2020-11-13 00:00:00 12.6 9 Nordeste 17 Nordeste 0 -- -- 53
2020-11-12 23:00:00 12.3 10 Nordeste 14 Nordeste 0 -- -- 58
2020-11-12 22:00:00 12.4 8 Norte 12 Nordeste 0 -- -- 62
2020-11-12 21:00:00 12.9 9 Norte 17 Nordeste 0 -- -- 60
2020-11-12 20:00:00 12.9 6 Norte 13 Norte 0 -- -- 62
2020-11-12 19:00:00 13.5 5 Nordeste 10 Norte 0 -- -- 61
2020-11-12 18:00:00 13.3 8 Norte 12 Nordeste 0 -- -- 67
2020-11-12 17:00:00 15.4 3 Nordeste 5 Este 0 -- -- 56
2020-11-12 16:00:00 16.9 3 Este 8 Sur 0 -- -- 55
2020-11-12 15:00:00 17.1 4 Sudeste 9 Sur 0 -- -- 53
2020-11-12 14:00:00 15.7 4 Este 9 Sudeste 0 -- -- 53
2020-11-12 13:00:00 16.1 4 Sur 10 Sur 0 -- -- 56
2020-11-12 12:00:00 15.8 3 Este 9 Sur 0 -- -- 53
2020-11-12 11:00:00 15.2 2 Sudeste 7 Sudeste 0 -- -- 58
2020-11-12 10:00:00 14.4 2 Nordeste 7 Sur 0 -- -- 62
2020-11-12 09:00:00 11.7 6 Nordeste 9 Nordeste 0 -- -- 67
2020-11-12 08:00:00 11 5 Norte 8 Norte 0 -- -- 72
2020-11-12 07:00:00 10.9 2 Este 10 Norte 0 -- -- 70
2020-11-12 06:00:00 10.5 6 Nordeste 12 Norte 0 -- -- 69
2020-11-12 05:00:00 10.8 6 Norte 8 Norte 0 -- -- 65
2020-11-12 04:00:00 11 0 Calma 6 Norte 0 -- -- 63
2020-11-12 03:00:00 11.1 5 Oeste 9 Norte 0 -- -- 62
2020-11-12 02:00:00 11.2 3 Oeste 10 Nordeste 0 -- -- 61
2020-11-12 01:00:00 11.2 6 Nordeste 10 Norte 0 -- -- 58
2020-11-12 00:00:00 11 4 Norte 12 Nordeste 0 -- -- 59
2020-11-11 23:00:00 11.2 6 Nordeste 19 Oeste 0 -- -- 56
2020-11-11 22:00:00 12.2 14 Oeste 23 Oeste 0 -- -- 51
2020-11-11 21:00:00 11.7 2 Noroeste 16 Noroeste 0 -- -- 46
2020-11-11 20:00:00 12 0 Calma 12 Norte 0 -- -- 43
2020-11-11 19:00:00 12.5 3 Nordeste 13 Norte 0 -- -- 42
2020-11-11 18:00:00 11.6 8 Norte 12 Norte 0 -- -- 51
2020-11-11 17:00:00 13 3 Norte 10 Nordeste 0 -- -- 47
2020-11-11 16:00:00 13.6 5 Nordeste 7 Nordeste 0 -- -- 47
2020-11-11 15:00:00 13.6 3 Nordeste 14 Nordeste 0 -- -- 49
2020-11-11 14:00:00 13.6 5 Nordeste 9 Este 0 -- -- 53
2020-11-11 13:00:00 15 3 Sur 13 Nordeste 0 -- -- 47
2020-11-11 12:00:00 13.2 5 Norte 11 Este 0 -- -- 49
2020-11-11 11:00:00 12.2 4 Nordeste 8 Este 0 -- -- 51
2020-11-11 10:00:00 11.8 6 Nordeste 9 Nordeste 0 -- -- 49
2020-11-11 09:00:00 9.8 5 Nordeste 12 Norte 0 -- -- 53
2020-11-11 08:00:00 9.8 4 Norte 13 Noroeste 0 -- -- 43
2020-11-11 07:00:00 9.7 6 Norte 14 Noroeste 0 -- -- 46
2020-11-11 06:00:00 9.6 10 Norte 15 Noroeste 0 -- -- 46
2020-11-11 05:00:00 9.2 8 Noroeste 13 Norte 0 -- -- 49
2020-11-11 04:00:00 8.9 6 Norte 14 Norte 0 -- -- 50
2020-11-11 03:00:00 9.6 6 Norte 14 Noroeste 0 -- -- 50
2020-11-11 02:00:00 9 8 Norte 12 Norte 0 -- -- 57
2020-11-11 01:00:00 9.6 6 Norte 8 Noroeste 0 -- -- 56
2020-11-11 00:00:00 8.9 6 Norte 9 Norte 0 -- -- 71
2020-11-10 23:00:00 8.8 6 Norte 9 Norte 0 -- -- 77
2020-11-10 22:00:00 8.8 6 Norte 10 Norte 0 -- -- 78
2020-11-10 21:00:00 8.9 4 Norte 8 Norte 0 -- -- 79
2020-11-10 20:00:00 9.5 5 Norte 8 Nordeste 0 -- -- 78
2020-11-10 19:00:00 9.3 3 Norte 6 Norte 0 -- -- 86
2020-11-10 18:00:00 10.1 4 Oeste 6 Noroeste 0 -- -- 84
2020-11-10 17:00:00 11.2 3 Nordeste 7 Sur 0 -- -- 82
2020-11-10 16:00:00 11.8 2 Este 7 Sudeste 0 -- -- 80
2020-11-10 15:00:00 11.7 4 Nordeste 9 Sur 0 -- -- 78
2020-11-10 14:00:00 11.8 4 Este 9 Nordeste 0 -- -- 79
2020-11-10 13:00:00 12.4 4 Sudeste 9 Oeste 0 -- -- 76
2020-11-10 12:00:00 9.4 7 Nordeste 11 Nordeste 0 -- -- 89
2020-11-10 11:00:00 9.3 2 Sudeste 7 Sur 0 -- -- 88
2020-11-10 10:00:00 9.9 4 Sur 6 Sur 0 -- -- 83
2020-11-10 09:00:00 7.1 0 Calma 6 Norte 0 -- -- 96
2020-11-10 08:00:00 7.1 3 Norte 8 Nordeste 0 -- -- 97
2020-11-10 07:00:00 7.7 2 Nordeste 7 Este 0 -- -- 93
2020-11-10 06:00:00 8.2 0 Calma 4 Sur 0 -- -- 93
2020-11-10 05:00:00 8.1 2 Norte 3 Norte 0 -- -- 94
2020-11-10 04:00:00 8.1 0 Calma 6 Sur 0 -- -- 93
2020-11-10 03:00:00 7.9 5 Oeste 6 Oeste 0 -- -- 96
2020-11-10 02:00:00 7.7 2 Norte 6 Nordeste 0 -- -- 95
2020-11-10 01:00:00 8.3 0 Calma 9 Norte 0 -- -- 86
2020-11-10 00:00:00 8.8 5 Noroeste 8 Noroeste 0 -- -- 85
2020-11-09 23:00:00 9.1 0 Calma 5 Norte 0 -- -- 86
2020-11-09 22:00:00 8.9 0 Calma 5 Noroeste 0 -- -- 86
2020-11-09 21:00:00 8.7 5 Noroeste 8 Noroeste 0 -- -- 88
2020-11-09 20:00:00 8.5 3 Norte 7 Norte 0 -- -- 90
2020-11-09 19:00:00 8.8 5 Norte 8 Noroeste 0.2 -- -- 86
2020-11-09 18:00:00 9.2 3 Nordeste 24 Oeste 4.2 -- -- 90
2020-11-09 17:00:00 11.1 3 Nordeste 22 Nordeste 0 -- -- 75
2020-11-09 16:00:00 12.4 4 Este 22 Nordeste 0 -- -- 72
2020-11-09 15:00:00 14.7 6 Sudeste 12 Sudeste 0 -- -- 64
2020-11-09 14:00:00 14.4 6 Nordeste 13 Este 0 -- -- 55
2020-11-09 13:00:00 15 4 Nordeste 13 Nordeste 0 -- -- 55
2020-11-09 12:00:00 14.3 5 Este 14 Sudeste 0 -- -- 56
2020-11-09 11:00:00 13 6 Este 15 Nordeste 0 -- -- 58
2020-11-09 10:00:00 11.8 6 Nordeste 13 Nordeste 0 -- -- 63
2020-11-09 09:00:00 10.2 4 Norte 11 Nordeste 0 -- -- 64
2020-11-09 08:00:00 9.6 9 Norte 16 Nordeste 0 -- -- 64
2020-11-09 07:00:00 10.3 3 Sudeste 11 Oeste 0 -- -- 57
2020-11-09 06:00:00 10.4 2 Norte 10 Sudoeste 0 -- -- 55
2020-11-09 05:00:00 11.1 7 Oeste 24 Oeste 0 -- -- 53
2020-11-09 04:00:00 11.6 16 Noroeste 25 Sudoeste 0 -- -- 49
2020-11-09 03:00:00 11.9 13 Oeste 30 Sudoeste 0 -- -- 48
2020-11-09 02:00:00 12 5 Noroeste 30 Sudoeste 0 -- -- 51
2020-11-09 01:00:00 12.8 17 Sudoeste 40 Sudoeste 0 -- -- 46
2020-11-09 00:00:00 13.3 15 Sudoeste 56 Sudoeste 0 -- -- 50
2020-11-08 23:00:00 11.7 10 Norte 19 Nordeste 0 -- -- 69
2020-11-08 22:00:00 14 17 Sudoeste 51 Sudoeste 0 -- -- 57
2020-11-08 21:00:00 14.1 27 Sudoeste 40 Sudoeste 0 -- -- 52
2020-11-08 20:00:00 12.4 13 Nordeste 31 Oeste 0 -- -- 61
2020-11-08 19:00:00 13.3 12 Nordeste 43 Sur 0 -- -- 57
2020-11-08 18:00:00 13.4 8 Sudeste 34 Sur 0 -- -- 57
2020-11-08 17:00:00 13.1 8 Nordeste 26 Oeste 0 -- -- 60
2020-11-08 16:00:00 15.8 26 Sudoeste 50 Sudoeste 0 -- -- 47
2020-11-08 15:00:00 16.6 18 Sur 41 Sur 0 -- -- 49
2020-11-08 14:00:00 16.9 8 Sudeste 37 Oeste 0 -- -- 58
2020-11-08 13:00:00 15.8 23 Sudoeste 45 Oeste 0 -- -- 51
2020-11-08 12:00:00 14.2 13 Sudoeste 47 Sudoeste 0 -- -- 54
2020-11-08 11:00:00 13.5 6 Sur 25 Este 0 -- -- 59
2020-11-08 10:00:00 14.5 13 Sudoeste 39 Sudoeste 0 -- -- 55
2020-11-08 09:00:00 12.6 23 Oeste 46 Sur 0 -- -- 61
2020-11-08 08:00:00 10.5 7 Este 21 Oeste 0 -- -- 78
2020-11-08 07:00:00 11.2 8 Nordeste 40 Sudoeste 0 -- -- 74
2020-11-08 06:00:00 11.6 9 Norte 32 Este 0 -- -- 67
2020-11-08 05:00:00 11.3 8 Norte 21 Norte 0 -- -- 68
2020-11-08 04:00:00 10.6 10 Nordeste 18 Norte 0 -- -- 74
2020-11-08 03:00:00 11 9 Norte 20 Nordeste 0 -- -- 68
2020-11-08 02:00:00 10.9 8 Norte 20 Oeste 0 -- -- 67
2020-11-08 01:00:00 10.7 9 Norte 14 Norte 0 -- -- 68
2020-11-08 00:00:00 11.1 9 Norte 15 Noroeste 0 -- -- 65
2020-11-07 23:00:00 11 9 Nordeste 15 Nordeste 0 -- -- 67
2020-11-07 22:00:00 12.5 8 Sur 40 Sudoeste 0 -- -- 60
2020-11-07 21:00:00 11.8 5 Noroeste 12 Noroeste 0 -- -- 61
2020-11-07 20:00:00 11.7 4 Norte 14 Norte 0 -- -- 62
2020-11-07 19:00:00 11.4 8 Norte 12 Norte 0 -- -- 66
2020-11-07 18:00:00 11.8 9 Norte 13 Noroeste 0 -- -- 66
2020-11-07 17:00:00 13.9 3 Norte 10 Nordeste 0 -- -- 60
2020-11-07 16:00:00 15.4 3 Nordeste 14 Nordeste 0 -- -- 58
2020-11-07 15:00:00 14.8 4 Nordeste 13 Este 0 -- -- 61
2020-11-07 14:00:00 14.6 3 Sudoeste 8 Nordeste 0 -- -- 71
2020-11-07 13:00:00 13.7 6 Nordeste 15 Nordeste 0 -- -- 71
2020-11-07 12:00:00 13.1 9 Nordeste 14 Norte 0 -- -- 75
2020-11-07 11:00:00 12.3 4 Nordeste 9 Sudoeste 0 -- -- 78
2020-11-07 10:00:00 11.3 8 Norte 17 Nordeste 0 -- -- 81
2020-11-07 09:00:00 11.1 10 Nordeste 14 Nordeste 0 -- -- 81
2020-11-07 08:00:00 11.4 8 Sudeste 21 Sudeste 0 -- -- 80
2020-11-07 07:00:00 11.9 11 Este 26 Sudeste 0 -- -- 78
2020-11-07 06:00:00 12.2 7 Noroeste 18 Sur 0 -- -- 74
2020-11-07 05:00:00 12.7 10 Este 35 Sur 0 -- -- 70
2020-11-07 04:00:00 12.4 9 Nordeste 28 Sudeste 0 -- -- 76
2020-11-07 03:00:00 12.2 10 Nordeste 19 Norte 0 -- -- 76
2020-11-07 02:00:00 11.6 6 Nordeste 42 Sudoeste 1.4 -- -- 83
2020-11-07 01:00:00 12.6 11 Nordeste 81 Sur 0 -- -- 76
2020-11-07 00:00:00 14.6 40 Sur 120 Sudoeste 0.4 -- -- 59
2020-11-06 23:00:00 13.1 30 Sudoeste 71 Sudoeste 3.8 -- -- 62
2020-11-06 22:00:00 15.5 15 Sudeste 40 Sudeste 0 -- -- 66
2020-11-06 21:00:00 15.5 15 Este 36 Sur 0 -- -- 67
2020-11-06 20:00:00 15.6 13 Sur 49 Sur 0 -- -- 68
2020-11-06 19:00:00 15.4 12 Sur 32 Sudeste 0 -- -- 69
2020-11-06 18:00:00 15.1 11 Norte 39 Nordeste 0 -- -- 68
2020-11-06 17:00:00 15 13 Nordeste 58 Sudeste 0 -- -- 68
2020-11-06 16:00:00 14.9 13 Nordeste 53 Sudeste 0 -- -- 65
2020-11-06 15:00:00 15.2 17 Este 54 Sur 0 -- -- 63
2020-11-06 14:00:00 15.4 18 Este 40 Sudeste 0 -- -- 64
2020-11-06 13:00:00 14.3 15 Este 34 Sudeste 0 -- -- 69
2020-11-06 12:00:00 14.2 15 Sur 30 Sudeste 0 -- -- 67
2020-11-06 11:00:00 12.3 5 Este 23 Sur 0 -- -- 76
2020-11-06 10:00:00 11.9 7 Sudeste 30 Sudeste 0 -- -- 76
2020-11-06 09:00:00 11.4 14 Sur 33 Sur 0 -- -- 76
2020-11-06 08:00:00 11 8 Nordeste 27 Sudeste 0 -- -- 80
2020-11-06 07:00:00 10.6 12 Este 35 Sudeste 0.6 -- -- 85
2020-11-06 06:00:00 11.1 12 Sudeste 27 Sudeste 0 -- -- 80
2020-11-06 05:00:00 10.6 10 Este 26 Este 0 -- -- 82
2020-11-06 04:00:00 10.6 8 Nordeste 22 Sudeste 0 -- -- 82
2020-11-06 03:00:00 10.7 14 Sudeste 44 Este 0 -- -- 80
2020-11-06 02:00:00 11.1 11 Sudeste 46 Sur 0 -- -- 78
2020-11-06 01:00:00 11.8 14 Sudeste 53 Sur 0 -- -- 72
2020-11-06 00:00:00 11.9 16 Sudeste 61 Sur 0 -- -- 71
2020-11-05 23:00:00 12.8 13 Sudeste 57 Sur 0 -- -- 66
2020-11-05 22:00:00 11.8 10 Este 30 Sur 0 -- -- 70
2020-11-05 21:00:00 12.3 11 Sur 35 Sur 0 -- -- 67
2020-11-05 20:00:00 11.9 14 Sudeste 32 Sudeste 0 -- -- 70
2020-11-05 19:00:00 11.4 10 Sudeste 33 Sudeste 0 -- -- 72
2020-11-05 18:00:00 10.9 10 Este 33 Sudeste 0 -- -- 73
2020-11-05 17:00:00 10.1 16 Nordeste 23 Nordeste 0 -- -- 81
2020-11-05 16:00:00 10.3 12 Nordeste 23 Norte 0 -- -- 80
2020-11-05 15:00:00 10.6 9 Nordeste 23 Nordeste -- -- -- 79
2020-11-05 14:00:00 9.3 11 Nordeste 28 Nordeste -- -- -- 82
2020-11-05 13:00:00 8.7 11 Nordeste 17 Nordeste -- -- -- 80
2020-11-05 12:00:00 8.5 6 Nordeste 22 Nordeste 0 -- -- 81
2020-11-05 11:00:00 5.5 14 Nordeste 26 Nordeste 0 -- -- 90
2020-11-05 10:00:00 5.5 14 Nordeste 26 Nordeste 0 -- -- 90
2020-11-05 09:00:00 4.6 14 Nordeste 21 Nordeste 0 -- -- 90
2020-11-05 08:00:00 4.6 10 Nordeste 15 Nordeste 0 -- -- 92
2020-11-05 07:00:00 4.1 9 Nordeste 18 Nordeste 0 -- -- 90
2020-11-05 06:00:00 3.9 4 Sudeste 13 Norte 0 -- -- 92
2020-11-05 05:00:00 3.3 6 Norte 16 Nordeste 0 -- -- 95
2020-11-05 04:00:00 3.5 12 Nordeste 21 Nordeste 0 -- -- 94
2020-11-05 03:00:00 3.2 11 Nordeste 17 Nordeste 0 -- -- 94
2020-11-05 02:00:00 3.4 12 Nordeste 19 Nordeste 0 -- -- 90
2020-11-05 01:00:00 3.6 12 Nordeste 21 Nordeste 0 -- -- 89
2020-11-05 00:00:00 3.7 9 Nordeste 18 Nordeste 0 -- -- 87
2020-11-04 23:00:00 3.5 13 Nordeste 31 Nordeste 0 -- -- 94
2020-11-04 22:00:00 3.1 15 Nordeste 27 Este 0.8 -- -- 99
2020-11-04 21:00:00 3.1 11 Nordeste 30 Este 0.4 -- -- 96
2020-11-04 20:00:00 3.3 9 Este 31 Sudeste 0.6 -- -- 97
2020-11-04 19:00:00 3.5 6 Nordeste 32 Este 0 -- -- 96
2020-11-04 18:00:00 3.6 8 Nordeste 46 Nordeste 0.2 -- -- 94
2020-11-04 17:00:00 4.1 8 Nordeste 23 Este 0 -- -- 96
2020-11-04 16:00:00 4.3 15 Nordeste 25 Nordeste 0.2 -- -- 92
2020-11-04 15:00:00 5.7 5 Nordeste 18 Nordeste 0 -- -- 87
2020-11-04 14:00:00 4.7 6 Nordeste 21 Nordeste 0 -- -- 91
2020-11-04 13:00:00 5.1 6 Nordeste 18 Este 0.2 -- -- 86
2020-11-04 12:00:00 5.8 8 Nordeste 13 Nordeste 0 -- -- 81
2020-11-04 11:00:00 4.1 6 Nordeste 13 Nordeste 0 -- -- 92
2020-11-04 10:00:00 4.1 3 Sudoeste 10 Nordeste 0.4 -- -- 94
2020-11-04 09:00:00 3.5 4 Norte 8 Oeste 0 -- -- 87
2020-11-04 08:00:00 2.6 3 Oeste 8 Oeste 0.2 -- -- 98
2020-11-04 07:00:00 2.6 0 Calma 8 Sudoeste 0.2 -- -- 98
2020-11-04 06:00:00 2.6 7 Sudoeste 11 Oeste 0.2 -- -- 95
2020-11-04 05:00:00 2.9 6 Sudoeste 9 Sur 0 -- -- 96
2020-11-04 04:00:00 3.9 6 Oeste 15 Oeste 0 -- -- 76
2020-11-04 03:00:00 3.6 10 Oeste 19 Oeste 0 -- -- 78
2020-11-04 02:00:00 3.6 17 Oeste 20 Oeste 0 -- -- 78
2020-11-04 01:00:00 3.3 13 Oeste 17 Oeste 0 -- -- 84
2020-11-04 00:00:00 3.6 8 Oeste 22 Oeste 0 -- -- 84
2020-11-03 23:00:00 3.5 18 Oeste 26 Oeste 0.4 -- -- 87
2020-11-03 22:00:00 3.8 12 Oeste 19 Oeste 0.2 -- -- 91
2020-11-03 21:00:00 3.6 10 Oeste 26 Oeste 0.4 -- -- 88
2020-11-03 20:00:00 4 10 Oeste 23 Oeste 0.4 -- -- 88
2020-11-03 19:00:00 4.1 16 Oeste 23 Oeste 0.4 -- -- 87
2020-11-03 18:00:00 4.5 11 Oeste 28 Oeste 1.6 -- -- 89
2020-11-03 17:00:00 4.9 13 Sudoeste 21 Oeste 0.2 -- -- 90
2020-11-03 16:00:00 4.8 12 Oeste 25 Oeste 0.2 -- -- 91
2020-11-03 15:00:00 5.7 10 Sudoeste 22 Sudoeste 0.4 -- -- 95
2020-11-03 14:00:00 6.1 14 Sudoeste 29 Oeste 0.4 -- -- 92
2020-11-03 13:00:00 6.4 10 Sudoeste 28 Oeste 1 -- -- 93
2020-11-03 12:00:00 6.3 19 Sudoeste 36 Oeste 0.2 -- -- 93
2020-11-03 11:00:00 6.6 10 Sudoeste 28 Sudoeste 0.6 -- -- 93
2020-11-03 10:00:00 7.3 19 Oeste 30 Oeste 0 -- -- 77
2020-11-03 09:00:00 7.2 10 Oeste 23 Oeste 0 -- -- 73
2020-11-03 08:00:00 6.5 16 Oeste 27 Oeste 0 -- -- 66
2020-11-03 07:00:00 5.8 23 Oeste 29 Oeste 0 -- -- 68
2020-11-03 06:00:00 6.2 21 Oeste 32 Oeste 0 -- -- 70
2020-11-03 05:00:00 6.1 20 Oeste 39 Oeste 0 -- -- 73
2020-11-03 04:00:00 6.4 19 Oeste 32 Oeste 0 -- -- 88
2020-11-03 03:00:00 6.9 16 Oeste 27 Oeste 0 -- -- 92
2020-11-03 02:00:00 7.1 11 Oeste 21 Oeste 0 -- -- 93
2020-11-03 01:00:00 7 9 Oeste 14 Oeste 0 -- -- 98
2020-11-03 00:00:00 7.2 7 Sur 14 Sudoeste 0.2 -- -- 99
2020-11-02 23:00:00 7.4 4 Sur 6 Sur 0.2 -- -- 99
2020-11-02 22:00:00 7.5 4 Sur 10 Sur 3.8 -- -- 99
2020-11-02 21:00:00 8 2 Sudeste 9 Sudeste 1.4 -- -- 99
2020-11-02 20:00:00 8.4 0 Calma 8 Sudeste 1 -- -- 98
2020-11-02 19:00:00 8.6 4 Nordeste 8 Sudeste 0.6 -- -- 98
2020-11-02 18:00:00 8.8 4 Sur 11 Sur 0.2 -- -- 97
2020-11-02 17:00:00 9.3 7 Sur 18 Sur 0.2 -- -- 96
2020-11-02 16:00:00 10.5 5 Sudeste 16 Sudeste 0 -- -- 95
2020-11-02 15:00:00 12.1 10 Sur 22 Sur 0 -- -- 92
2020-11-02 14:00:00 15.5 6 Sudeste 17 Sur 0 -- -- 80
2020-11-02 13:00:00 18 5 Sur 19 Nordeste 0 -- -- 67
2020-11-02 12:00:00 18.6 7 Nordeste 12 Este 0 -- -- 58
2020-11-02 11:00:00 17.9 4 Este 9 Nordeste 0 -- -- 58
2020-11-02 10:00:00 16.3 4 Nordeste 10 Nordeste 0 -- -- 63
2020-11-02 09:00:00 14 8 Nordeste 13 Norte 0 -- -- 71
2020-11-02 08:00:00 13.8 6 Norte 14 Norte 0 -- -- 70
2020-11-02 07:00:00 13.8 10 Noroeste 14 Noroeste 0 -- -- 70
2020-11-02 06:00:00 13.6 5 Norte 14 Norte 0 -- -- 71
2020-11-02 05:00:00 14.1 8 Norte 12 Noroeste 0 -- -- 71
2020-11-02 04:00:00 14.2 8 Norte 14 Norte 0 -- -- 72
2020-11-02 03:00:00 14.4 10 Norte 15 Norte 0 -- -- 72
2020-11-02 02:00:00 14.9 6 Norte 12 Norte 0 -- -- 70
2020-11-02 01:00:00 14.5 6 Norte 13 Nordeste 0 -- -- 74
2020-11-02 00:00:00 15.2 6 Norte 12 Nordeste 0 -- -- 71
2020-11-01 23:00:00 14.8 8 Norte 13 Nordeste 0 -- -- 74
2020-11-01 22:00:00 15.3 8 Norte 12 Nordeste 0 -- -- 72
2020-11-01 21:00:00 15.4 10 Norte 15 Norte 0 -- -- 73
2020-11-01 20:00:00 16 9 Norte 14 Norte 0 -- -- 70
2020-11-01 19:00:00 16.4 6 Norte 12 Nordeste 0 -- -- 69
2020-11-01 18:00:00 17.3 6 Norte 10 Norte 0 -- -- 66
2020-11-01 17:00:00 18.1 6 Nordeste 10 Nordeste 0 -- -- 66
2020-11-01 16:00:00 18.4 6 Nordeste 9 Nordeste 0 -- -- 65
2020-11-01 15:00:00 19.1 4 Nordeste 12 Nordeste 0 -- -- 63
2020-11-01 14:00:00 18.4 8 Nordeste 12 Norte 0 -- -- 62
2020-11-01 13:00:00 17.8 3 Nordeste 10 Este 0 -- -- 66
2020-11-01 12:00:00 16.5 7 Nordeste 10 Nordeste 0 -- -- 66
2020-11-01 11:00:00 16.1 5 Norte 9 Nordeste 0 -- -- 68
2020-11-01 10:00:00 15.5 6 Norte 8 Norte 0 -- -- 70
2020-11-01 09:00:00 15.1 5 Nordeste 7 Nordeste 0 -- -- 69
2020-11-01 08:00:00 14.9 4 Norte 8 Nordeste 0 -- -- 69
2020-11-01 07:00:00 14.7 5 Norte 9 Norte 0 -- -- 69
2020-11-01 06:00:00 14.5 8 Norte 13 Norte 0 -- -- 70
2020-11-01 05:00:00 14.8 4 Sudeste 10 Sur 0 -- -- 68
2020-11-01 04:00:00 14.6 3 Oeste 9 Norte 0 -- -- 65
2020-11-01 03:00:00 14.4 6 Norte 10 Norte 0 -- -- 67
2020-11-01 02:00:00 14.6 4 Norte 8 Nordeste 0 -- -- 63
2020-11-01 01:00:00 13.8 8 Norte 11 Norte 0 -- -- 67
2020-11-01 00:00:00 14.2 5 Nordeste 9 Nordeste 0 -- -- 64
2020-10-31 23:00:00 14.5 6 Norte 10 Norte 0 -- -- 62
2020-10-31 22:00:00 14.6 5 Noroeste 12 Oeste 0 -- -- 61
2020-10-31 21:00:00 15.3 10 Oeste 19 Oeste 0 -- -- 59
2020-10-31 20:00:00 14.3 9 Norte 13 Norte 0 -- -- 65
2020-10-31 19:00:00 15.6 6 Norte 13 Noroeste 0 -- -- 58
2020-10-31 18:00:00 16.9 9 Noroeste 12 Noroeste 0 -- -- 51
2020-10-31 17:00:00 18.6 5 Sudoeste 10 Sudoeste 0 -- -- 46
2020-10-31 16:00:00 20.8 3 Sudeste 18 Nordeste 0 -- -- 44
2020-10-31 15:00:00 20.8 6 Este 14 Sudeste 0 -- -- 41
2020-10-31 14:00:00 20 3 Nordeste 10 Sur 0 -- -- 43
2020-10-31 13:00:00 18.8 0 Calma 7 Nordeste 0 -- -- 43
2020-10-31 12:00:00 16.5 3 Norte 14 Nordeste 0 -- -- 53
2020-10-31 11:00:00 17.2 5 Este 12 Nordeste 0 -- -- 49
2020-10-31 10:00:00 15.8 5 Oeste 10 Norte 0 -- -- 53
2020-10-31 09:00:00 13.9 6 Nordeste 19 Norte 0 -- -- 56
2020-10-31 08:00:00 13.1 9 Norte 12 Norte 0 -- -- 54
2020-10-31 07:00:00 13.9 4 Norte 12 Norte 0 -- -- 49
2020-10-31 06:00:00 13.3 7 Norte 14 Norte 0 -- -- 51
2020-10-31 05:00:00 12.9 9 Norte 16 Norte 0 -- -- 51
2020-10-31 04:00:00 13.9 6 Norte 15 Noroeste 0 -- -- 48
2020-10-31 03:00:00 13.6 8 Norte 16 Norte 0 -- -- 45
2020-10-31 02:00:00 12.5 13 Norte 18 Norte 0 -- -- 55
2020-10-31 01:00:00 12.7 10 Norte 17 Norte 0 -- -- 50
2020-10-31 00:00:00 11.9 7 Norte 14 Noroeste 0 -- -- 55
2020-10-30 23:00:00 11.8 8 Norte 12 Norte 0 -- -- 57
2020-10-30 22:00:00 11.7 5 Norte 9 Norte 0 -- -- 60
2020-10-30 21:00:00 11 2 Sudoeste 5 Sudoeste 0 -- -- 63
2020-10-30 20:00:00 11 3 Norte 6 Nordeste 0 -- -- 63
2020-10-30 19:00:00 11.5 2 Sudoeste 7 Sudoeste 0 -- -- 63
2020-10-30 18:00:00 12.6 6 Sudoeste 8 Sudoeste 0 -- -- 61
2020-10-30 17:00:00 15.8 2 Este 10 Sur 0 -- -- 52
2020-10-30 16:00:00 16.2 6 Sur 13 Sur 0 -- -- 53
2020-10-30 15:00:00 17.5 6 Sudeste 11 Sur 0 -- -- 47
2020-10-30 14:00:00 17.1 5 Sur 13 Sur 0 -- -- 50
2020-10-30 13:00:00 15.6 5 Sudeste 12 Sur 0 -- -- 61
2020-10-30 12:00:00 14.5 5 Sur 12 Sur 0 -- -- 56
2020-10-30 11:00:00 14.8 0 Calma 5 Sur 0 -- -- 39
2020-10-30 10:00:00 12.2 2 Sudoeste 8 Sudeste 0 -- -- 51
2020-10-30 09:00:00 9.2 3 Nordeste 6 Nordeste 0 -- -- 66
2020-10-30 08:00:00 7.3 4 Norte 7 Norte 0 -- -- 50
2020-10-30 07:00:00 5.9 4 Norte 9 Norte 0 -- -- 98
2020-10-30 06:00:00 6.8 0 Calma 4 Oeste 0 -- -- 95
2020-10-30 05:00:00 7.4 0 Calma 9 Sudoeste 0 -- -- 91
2020-10-30 04:00:00 7.7 6 Sudoeste 8 Nordeste 0 -- -- 74
2020-10-30 03:00:00 8.2 4 Norte 9 Sudoeste 0 -- -- 74
2020-10-30 02:00:00 8.4 3 Sudoeste 9 Norte 0 -- -- 88
2020-10-30 01:00:00 8.4 3 Sudoeste 8 Sur 0 -- -- 90
2020-10-30 00:00:00 9.3 5 Sudoeste 8 Sudoeste 0 -- -- 74
2020-10-29 23:00:00 9.6 2 Oeste 7 Sudoeste 0 -- -- 72
2020-10-29 22:00:00 9.9 3 Sur 7 Sudoeste 0 -- -- 78
2020-10-29 21:00:00 11.1 3 Sudoeste 6 Sudoeste 0 -- -- 74
2020-10-29 20:00:00 10.6 3 Sudoeste 8 Sudoeste 0 -- -- 83
2020-10-29 19:00:00 10.2 0 Calma 4 Sudoeste 0 -- -- 89
2020-10-29 18:00:00 10.6 2 Noroeste 9 Sur 0 -- -- 87
2020-10-29 17:00:00 13.1 3 Sur 11 Sudeste 0 -- -- 77
2020-10-29 16:00:00 15 6 Sur 10 Sur 0 -- -- 72
2020-10-29 15:00:00 15.1 4 Sudeste 10 Sur 0 -- -- 70
2020-10-29 14:00:00 14.8 6 Sur 12 Sur 0 -- -- 69
2020-10-29 13:00:00 13.9 3 Este 12 Sur 0 -- -- 70
2020-10-29 12:00:00 13.4 3 Sur 10 Sur 0 -- -- 72
2020-10-29 11:00:00 11.2 3 Este 9 Sudeste 0 -- -- 78
2020-10-29 10:00:00 10 4 Nordeste 8 Sur 0 -- -- 83
2020-10-29 09:00:00 7.8 3 Nordeste 11 Nordeste 0 -- -- 92
2020-10-29 08:00:00 7.7 8 Nordeste 14 Nordeste 0 -- -- 89
2020-10-29 07:00:00 7.1 4 Sudoeste 12 Nordeste 0 -- -- 96
2020-10-29 06:00:00 7.4 8 Norte 12 Nordeste 0 -- -- 94
2020-10-29 05:00:00 8.5 4 Norte 6 Norte 0 -- -- 90
2020-10-29 04:00:00 8.5 2 Sur 4 Norte 0 -- -- 90
2020-10-29 03:00:00 9 0 Calma 5 Sudoeste 0 -- -- 88
2020-10-29 02:00:00 8.9 4 Norte 10 Norte 0 -- -- 86
2020-10-29 01:00:00 9 3 Norte 9 Sur 0 -- -- 86
2020-10-29 00:00:00 9.3 8 Noroeste 12 Noroeste 0 -- -- 82
2020-10-28 23:00:00 9.1 3 Sudoeste 12 Noroeste 0 -- -- 91
2020-10-28 22:00:00 9.1 4 Norte 6 Nordeste 0 -- -- 90
2020-10-28 21:00:00 9.4 0 Calma 7 Norte 0 -- -- 89
2020-10-28 20:00:00 9.2 0 Calma 5 Sudoeste 0 -- -- 93
2020-10-28 19:00:00 9.3 3 Este 9 Sur 0 -- -- 94
2020-10-28 18:00:00 9.8 3 Sudoeste 6 Sur 0 -- -- 94
2020-10-28 17:00:00 10.4 5 Sudoeste 13 Noroeste 0 -- -- 87
2020-10-28 16:00:00 11 4 Sudeste 9 Nordeste 0 -- -- 89
2020-10-28 15:00:00 10.7 4 Este 10 Sudeste 0 -- -- 92
2020-10-28 14:00:00 9.6 4 Sur 7 Sudoeste 0 -- -- 96
2020-10-28 13:00:00 10 4 Sur 7 Sur 0 -- -- 92
2020-10-28 12:00:00 9.7 2 Nordeste 10 Nordeste 0 -- -- 94
2020-10-28 11:00:00 9.9 3 Este 6 Nordeste 0 -- -- 95
2020-10-28 10:00:00 8.8 4 Sur 8 Sur 0 -- -- 98
2020-10-28 09:00:00 8.5 0 Calma 6 Norte 0 -- -- 98
2020-10-28 08:00:00 8.3 4 Este 9 Oeste 0 -- -- 97
2020-10-28 07:00:00 8.6 0 Calma 6 Norte 0.2 -- -- 98
2020-10-28 06:00:00 8.7 2 Oeste 8 Sudeste 0.4 -- -- 98
2020-10-28 05:00:00 8.8 2 Este 8 Este 0.2 -- -- 98
2020-10-28 04:00:00 8.9 0 Calma 5 Sur 0 -- -- 96
2020-10-28 03:00:00 9 2 Norte 5 Sur 0 -- -- 96
2020-10-28 02:00:00 9.5 3 Sur 6 Sur 0 -- -- 93
2020-10-28 01:00:00 9.2 2 Noroeste 10 Norte 0 -- -- 96
2020-10-28 00:00:00 9.6 3 Oeste 13 Norte 0 -- -- 96
2020-10-27 23:00:00 10.5 3 Sur 12 Nordeste 0 -- -- 87
2020-10-27 22:00:00 10.7 7 Nordeste 18 Este 0 -- -- 84
2020-10-27 21:00:00 11.5 6 Nordeste 28 Nordeste 0 -- -- 77
2020-10-27 20:00:00 12 14 Nordeste 23 Nordeste 0 -- -- 75
2020-10-27 19:00:00 12 12 Nordeste 17 Nordeste 0 -- -- 76
2020-10-27 18:00:00 12.3 3 Norte 12 Este 0 -- -- 76
2020-10-27 17:00:00 12.7 6 Nordeste 20 Norte 0 -- -- 76
2020-10-27 16:00:00 14 6 Nordeste 12 Nordeste 0 -- -- 70
2020-10-27 15:00:00 14.3 6 Oeste 21 Oeste 0 -- -- 70
2020-10-27 14:00:00 13 8 Noroeste 23 Oeste 0 -- -- 75
2020-10-27 13:00:00 12.2 10 Oeste 20 Oeste 0 -- -- 79
2020-10-27 12:00:00 11.7 10 Sudoeste 29 Sudoeste 0 -- -- 74
2020-10-27 11:00:00 12.4 10 Sudoeste 22 Sudoeste 0 -- -- 66
2020-10-27 10:00:00 11.8 4 Este 25 Sudoeste 0 -- -- 63
2020-10-27 09:00:00 9.7 16 Oeste 26 Sudoeste 0 -- -- 66
2020-10-27 08:00:00 8.3 15 Oeste 21 Oeste 0 -- -- 65
2020-10-27 07:00:00 6.8 4 Norte 9 Norte 0 -- -- 67
2020-10-27 06:00:00 6.9 6 Nordeste 11 Nordeste 0 -- -- 68
2020-10-27 05:00:00 7 6 Norte 10 Norte 0 -- -- 67
2020-10-27 04:00:00 7.4 5 Nordeste 10 Norte 0 -- -- 63
2020-10-27 03:00:00 7.3 5 Norte 9 Norte 0 -- -- 64
2020-10-27 02:00:00 7 6 Norte 8 Este 0 -- -- 67
2020-10-27 01:00:00 6.7 8 Norte 15 Sur 0 -- -- 68
2020-10-27 00:00:00 6.9 4 Norte 19 Sudoeste 0 -- -- 65